sensor_id;sensor_type;location;lat;lon;timestamp;P1;durP1;ratioP1;P2;durP2;ratioP2
54993;SDS011;40891;47.242;8.648;2022-10-16T00:00:30;10.20;;;1.70;;
54993;SDS011;40891;47.242;8.648;2022-10-16T00:02:56;3.42;;;1.70;;
54993;SDS011;40891;47.242;8.648;2022-10-16T00:05:22;7.97;;;1.50;;
54993;SDS011;40891;47.242;8.648;2022-10-16T00:07:47;7.53;;;1.38;;
54993;SDS011;40891;47.242;8.648;2022-10-16T00:10:12;5.53;;;1.38;;
54993;SDS011;40891;47.242;8.648;2022-10-16T00:12:38;7.95;;;1.50;;
54993;SDS011;40891;47.242;8.648;2022-10-16T00:15:03;2.65;;;1.50;;
54993;SDS011;40891;47.242;8.648;2022-10-16T00:17:29;2.00;;;1.30;;
54993;SDS011;40891;47.242;8.648;2022-10-16T00:19:55;8.15;;;1.40;;
54993;SDS011;40891;47.242;8.648;2022-10-16T00:22:21;4.45;;;1.20;;
54993;SDS011;40891;47.242;8.648;2022-10-16T00:24:47;3.13;;;1.30;;
54993;SDS011;40891;47.242;8.648;2022-10-16T00:27:12;3.72;;;1.00;;
54993;SDS011;40891;47.242;8.648;2022-10-16T00:29:37;3.72;;;1.20;;
54993;SDS011;40891;47.242;8.648;2022-10-16T00:32:03;2.90;;;1.35;;
54993;SDS011;40891;47.242;8.648;2022-10-16T00:34:28;5.18;;;1.20;;
54993;SDS011;40891;47.242;8.648;2022-10-16T00:36:54;8.50;;;1.15;;
54993;SDS011;40891;47.242;8.648;2022-10-16T00:39:19;6.28;;;1.25;;
54993;SDS011;40891;47.242;8.648;2022-10-16T00:41:44;1.58;;;1.05;;
54993;SDS011;40891;47.242;8.648;2022-10-16T00:44:53;4.70;;;1.23;;
54993;SDS011;40891;47.242;8.648;2022-10-16T00:47:10;5.95;;;1.30;;
54993;SDS011;40891;47.242;8.648;2022-10-16T00:49:37;4.20;;;1.00;;
54993;SDS011;40891;47.242;8.648;2022-10-16T00:52:03;5.15;;;1.10;;
54993;SDS011;40891;47.242;8.648;2022-10-16T00:54:30;7.88;;;1.00;;
54993;SDS011;40891;47.242;8.648;2022-10-16T00:56:57;9.57;;;1.73;;
54993;SDS011;40891;47.242;8.648;2022-10-16T00:59:28;1.55;;;1.13;;
54993;SDS011;40891;47.242;8.648;2022-10-16T01:01:56;2.17;;;1.13;;
54993;SDS011;40891;47.242;8.648;2022-10-16T01:04:23;3.67;;;1.13;;
54993;SDS011;40891;47.242;8.648;2022-10-16T01:07:07;4.78;;;1.00;;
54993;SDS011;40891;47.242;8.648;2022-10-16T01:10:02;1.65;;;1.10;;
54993;SDS011;40891;47.242;8.648;2022-10-16T01:12:51;4.95;;;1.05;;
54993;SDS011;40891;47.242;8.648;2022-10-16T01:15:41;2.65;;;0.95;;
54993;SDS011;40891;47.242;8.648;2022-10-16T01:18:23;5.60;;;0.90;;
54993;SDS011;40891;47.242;8.648;2022-10-16T01:21:08;2.15;;;0.75;;
54993;SDS011;40891;47.242;8.648;2022-10-16T01:23:49;7.70;;;1.70;;
54993;SDS011;40891;47.242;8.648;2022-10-16T01:31:59;7.32;;;1.30;;
54993;SDS011;40891;47.242;8.648;2022-10-16T01:34:38;1.85;;;1.10;;
54993;SDS011;40891;47.242;8.648;2022-10-16T01:37:12;2.78;;;1.05;;
54993;SDS011;40891;47.242;8.648;2022-10-16T01:39:42;6.53;;;1.42;;
54993;SDS011;40891;47.242;8.648;2022-10-16T01:42:14;7.95;;;0.98;;
54993;SDS011;40891;47.242;8.648;2022-10-16T01:44:44;4.97;;;1.13;;
54993;SDS011;40891;47.242;8.648;2022-10-16T01:47:12;3.85;;;1.00;;
54993;SDS011;40891;47.242;8.648;2022-10-16T01:49:39;4.80;;;0.98;;
54993;SDS011;40891;47.242;8.648;2022-10-16T01:52:08;4.13;;;1.00;;
54993;SDS011;40891;47.242;8.648;2022-10-16T01:54:37;3.75;;;1.25;;
54993;SDS011;40891;47.242;8.648;2022-10-16T01:57:07;8.43;;;1.10;;
54993;SDS011;40891;47.242;8.648;2022-10-16T01:59:34;1.60;;;0.90;;
54993;SDS011;40891;47.242;8.648;2022-10-16T02:02:04;6.47;;;0.90;;
54993;SDS011;40891;47.242;8.648;2022-10-16T02:04:34;4.13;;;0.93;;
54993;SDS011;40891;47.242;8.648;2022-10-16T02:07:03;6.35;;;0.90;;
54993;SDS011;40891;47.242;8.648;2022-10-16T02:09:29;6.63;;;1.02;;
54993;SDS011;40891;47.242;8.648;2022-10-16T02:11:57;3.22;;;1.10;;
54993;SDS011;40891;47.242;8.648;2022-10-16T02:14:27;1.27;;;1.05;;
54993;SDS011;40891;47.242;8.648;2022-10-16T02:16:53;3.93;;;1.10;;
54993;SDS011;40891;47.242;8.648;2022-10-16T02:19:19;1.30;;;0.80;;
54993;SDS011;40891;47.242;8.648;2022-10-16T02:21:56;1.13;;;0.80;;
54993;SDS011;40891;47.242;8.648;2022-10-16T02:26:57;2.05;;;1.02;;
54993;SDS011;40891;47.242;8.648;2022-10-16T02:29:47;1.43;;;0.80;;
54993;SDS011;40891;47.242;8.648;2022-10-16T02:32:19;3.23;;;0.80;;
54993;SDS011;40891;47.242;8.648;2022-10-16T02:34:49;2.60;;;1.00;;
54993;SDS011;40891;47.242;8.648;2022-10-16T02:37:16;5.03;;;0.90;;
54993;SDS011;40891;47.242;8.648;2022-10-16T02:39:42;2.67;;;1.00;;
54993;SDS011;40891;47.242;8.648;2022-10-16T02:42:14;5.07;;;1.00;;
54993;SDS011;40891;47.242;8.648;2022-10-16T02:44:40;1.40;;;0.97;;
54993;SDS011;40891;47.242;8.648;2022-10-16T02:47:05;3.70;;;0.95;;
54993;SDS011;40891;47.242;8.648;2022-10-16T02:49:31;10.00;;;0.90;;
54993;SDS011;40891;47.242;8.648;2022-10-16T02:51:56;4.50;;;0.70;;
54993;SDS011;40891;47.242;8.648;2022-10-16T02:54:22;3.60;;;0.70;;
54993;SDS011;40891;47.242;8.648;2022-10-16T02:56:47;3.90;;;0.83;;
54993;SDS011;40891;47.242;8.648;2022-10-16T02:59:12;2.30;;;0.93;;
54993;SDS011;40891;47.242;8.648;2022-10-16T03:01:38;4.47;;;0.98;;
54993;SDS011;40891;47.242;8.648;2022-10-16T03:04:03;1.85;;;0.90;;
54993;SDS011;40891;47.242;8.648;2022-10-16T03:06:29;2.07;;;0.90;;
54993;SDS011;40891;47.242;8.648;2022-10-16T03:08:54;1.90;;;0.83;;
54993;SDS011;40891;47.242;8.648;2022-10-16T03:11:19;4.00;;;1.10;;
54993;SDS011;40891;47.242;8.648;2022-10-16T03:13:45;4.38;;;0.90;;
54993;SDS011;40891;47.242;8.648;2022-10-16T03:16:10;5.18;;;1.05;;
54993;SDS011;40891;47.242;8.648;2022-10-16T03:18:36;3.37;;;1.07;;
54993;SDS011;40891;47.242;8.648;2022-10-16T03:21:02;1.97;;;0.90;;
54993;SDS011;40891;47.242;8.648;2022-10-16T03:23:27;3.13;;;1.60;;
54993;SDS011;40891;47.242;8.648;2022-10-16T03:25:53;3.07;;;0.83;;
54993;SDS011;40891;47.242;8.648;2022-10-16T03:28:18;4.22;;;0.95;;
54993;SDS011;40891;47.242;8.648;2022-10-16T03:30:44;3.80;;;1.10;;
54993;SDS011;40891;47.242;8.648;2022-10-16T03:33:09;3.63;;;1.00;;
54993;SDS011;40891;47.242;8.648;2022-10-16T03:35:35;2.37;;;0.80;;
54993;SDS011;40891;47.242;8.648;2022-10-16T03:38:00;8.37;;;1.20;;
54993;SDS011;40891;47.242;8.648;2022-10-16T03:40:26;1.88;;;1.10;;
54993;SDS011;40891;47.242;8.648;2022-10-16T03:42:51;2.85;;;1.17;;
54993;SDS011;40891;47.242;8.648;2022-10-16T03:45:16;3.50;;;1.10;;
54993;SDS011;40891;47.242;8.648;2022-10-16T03:47:42;5.60;;;0.80;;
54993;SDS011;40891;47.242;8.648;2022-10-16T03:50:08;5.27;;;0.97;;
54993;SDS011;40891;47.242;8.648;2022-10-16T03:52:33;1.45;;;1.10;;
54993;SDS011;40891;47.242;8.648;2022-10-16T03:54:59;2.42;;;1.10;;
54993;SDS011;40891;47.242;8.648;2022-10-16T03:57:24;2.63;;;1.02;;
54993;SDS011;40891;47.242;8.648;2022-10-16T03:59:50;7.95;;;0.80;;
54993;SDS011;40891;47.242;8.648;2022-10-16T04:02:15;5.70;;;0.93;;
54993;SDS011;40891;47.242;8.648;2022-10-16T04:04:41;3.83;;;1.08;;
54993;SDS011;40891;47.242;8.648;2022-10-16T04:07:06;5.53;;;1.17;;
54993;SDS011;40891;47.242;8.648;2022-10-16T04:09:32;3.53;;;0.88;;
54993;SDS011;40891;47.242;8.648;2022-10-16T04:11:57;6.30;;;0.90;;
54993;SDS011;40891;47.242;8.648;2022-10-16T04:14:23;10.75;;;1.05;;
54993;SDS011;40891;47.242;8.648;2022-10-16T04:16:48;7.50;;;1.00;;
54993;SDS011;40891;47.242;8.648;2022-10-16T04:19:13;5.65;;;0.90;;
54993;SDS011;40891;47.242;8.648;2022-10-16T04:21:39;1.20;;;0.70;;
54993;SDS011;40891;47.242;8.648;2022-10-16T04:24:04;3.40;;;1.20;;
54993;SDS011;40891;47.242;8.648;2022-10-16T04:26:30;3.00;;;1.08;;
54993;SDS011;40891;47.242;8.648;2022-10-16T04:28:55;2.92;;;0.88;;
54993;SDS011;40891;47.242;8.648;2022-10-16T04:31:21;2.38;;;1.13;;
54993;SDS011;40891;47.242;8.648;2022-10-16T04:33:46;1.20;;;0.90;;
54993;SDS011;40891;47.242;8.648;2022-10-16T04:36:12;3.55;;;0.85;;
54993;SDS011;40891;47.242;8.648;2022-10-16T04:38:37;3.15;;;1.00;;
54993;SDS011;40891;47.242;8.648;2022-10-16T04:41:04;5.97;;;1.10;;
54993;SDS011;40891;47.242;8.648;2022-10-16T04:43:32;2.23;;;1.30;;
54993;SDS011;40891;47.242;8.648;2022-10-16T04:45:58;6.32;;;2.83;;
54993;SDS011;40891;47.242;8.648;2022-10-16T04:48:23;48.47;;;21.33;;
54993;SDS011;40891;47.242;8.648;2022-10-16T04:50:49;48.50;;;22.80;;
54993;SDS011;40891;47.242;8.648;2022-10-16T04:53:14;33.97;;;14.35;;
54993;SDS011;40891;47.242;8.648;2022-10-16T04:55:40;16.45;;;6.35;;
54993;SDS011;40891;47.242;8.648;2022-10-16T04:58:06;14.15;;;6.00;;
54993;SDS011;40891;47.242;8.648;2022-10-16T05:00:32;6.82;;;2.83;;
54993;SDS011;40891;47.242;8.648;2022-10-16T05:02:57;7.43;;;3.08;;
54993;SDS011;40891;47.242;8.648;2022-10-16T05:05:24;9.32;;;3.90;;
54993;SDS011;40891;47.242;8.648;2022-10-16T05:07:49;6.22;;;2.30;;
54993;SDS011;40891;47.242;8.648;2022-10-16T05:10:15;6.97;;;2.10;;
54993;SDS011;40891;47.242;8.648;2022-10-16T05:12:41;6.63;;;2.73;;
54993;SDS011;40891;47.242;8.648;2022-10-16T05:15:07;4.30;;;1.20;;
54993;SDS011;40891;47.242;8.648;2022-10-16T05:17:33;2.47;;;1.30;;
54993;SDS011;40891;47.242;8.648;2022-10-16T05:19:58;3.15;;;1.60;;
54993;SDS011;40891;47.242;8.648;2022-10-16T05:22:23;3.22;;;1.40;;
54993;SDS011;40891;47.242;8.648;2022-10-16T05:24:49;4.88;;;1.38;;
54993;SDS011;40891;47.242;8.648;2022-10-16T05:27:14;4.93;;;1.30;;
54993;SDS011;40891;47.242;8.648;2022-10-16T05:29:47;6.20;;;1.07;;
54993;SDS011;40891;47.242;8.648;2022-10-16T05:32:16;3.20;;;1.70;;
54993;SDS011;40891;47.242;8.648;2022-10-16T05:34:43;6.80;;;1.20;;
54993;SDS011;40891;47.242;8.648;2022-10-16T05:37:09;4.25;;;1.20;;
54993;SDS011;40891;47.242;8.648;2022-10-16T05:39:36;3.15;;;1.20;;
54993;SDS011;40891;47.242;8.648;2022-10-16T05:42:02;2.40;;;0.88;;
54993;SDS011;40891;47.242;8.648;2022-10-16T05:44:28;2.38;;;1.13;;
54993;SDS011;40891;47.242;8.648;2022-10-16T05:46:53;2.28;;;1.08;;
54993;SDS011;40891;47.242;8.648;2022-10-16T05:49:18;8.40;;;1.20;;
54993;SDS011;40891;47.242;8.648;2022-10-16T05:51:44;2.13;;;0.80;;
54993;SDS011;40891;47.242;8.648;2022-10-16T05:54:09;2.42;;;1.42;;
54993;SDS011;40891;47.242;8.648;2022-10-16T05:56:35;4.13;;;1.10;;
54993;SDS011;40891;47.242;8.648;2022-10-16T05:59:00;1.85;;;0.85;;
54993;SDS011;40891;47.242;8.648;2022-10-16T06:01:25;2.60;;;0.90;;
54993;SDS011;40891;47.242;8.648;2022-10-16T06:03:51;1.80;;;1.10;;
54993;SDS011;40891;47.242;8.648;2022-10-16T06:06:18;17.03;;;1.53;;
54993;SDS011;40891;47.242;8.648;2022-10-16T06:08:45;4.57;;;1.00;;
54993;SDS011;40891;47.242;8.648;2022-10-16T06:11:13;4.75;;;0.85;;
54993;SDS011;40891;47.242;8.648;2022-10-16T06:13:40;5.63;;;1.23;;
54993;SDS011;40891;47.242;8.648;2022-10-16T06:16:07;3.00;;;1.10;;
54993;SDS011;40891;47.242;8.648;2022-10-16T06:18:34;6.90;;;1.00;;
54993;SDS011;40891;47.242;8.648;2022-10-16T06:20:59;2.05;;;1.20;;
54993;SDS011;40891;47.242;8.648;2022-10-16T06:23:25;6.05;;;1.35;;
54993;SDS011;40891;47.242;8.648;2022-10-16T06:25:53;3.28;;;1.08;;
54993;SDS011;40891;47.242;8.648;2022-10-16T06:28:18;4.80;;;1.00;;
54993;SDS011;40891;47.242;8.648;2022-10-16T06:30:43;9.52;;;1.27;;
54993;SDS011;40891;47.242;8.648;2022-10-16T06:33:09;1.27;;;0.98;;
54993;SDS011;40891;47.242;8.648;2022-10-16T06:35:35;3.47;;;0.93;;
54993;SDS011;40891;47.242;8.648;2022-10-16T06:38:01;5.80;;;1.25;;
54993;SDS011;40891;47.242;8.648;2022-10-16T06:40:26;3.22;;;1.10;;
54993;SDS011;40891;47.242;8.648;2022-10-16T06:42:54;2.33;;;1.08;;
54993;SDS011;40891;47.242;8.648;2022-10-16T06:45:20;1.25;;;1.08;;
54993;SDS011;40891;47.242;8.648;2022-10-16T06:47:45;3.92;;;0.90;;
54993;SDS011;40891;47.242;8.648;2022-10-16T06:50:10;1.40;;;0.93;;
54993;SDS011;40891;47.242;8.648;2022-10-16T06:52:36;1.60;;;0.93;;
54993;SDS011;40891;47.242;8.648;2022-10-16T06:55:01;2.65;;;1.10;;
54993;SDS011;40891;47.242;8.648;2022-10-16T06:57:28;1.45;;;1.00;;
54993;SDS011;40891;47.242;8.648;2022-10-16T06:59:53;5.78;;;0.90;;
54993;SDS011;40891;47.242;8.648;2022-10-16T07:02:19;3.00;;;1.10;;
54993;SDS011;40891;47.242;8.648;2022-10-16T07:04:44;4.05;;;0.90;;
54993;SDS011;40891;47.242;8.648;2022-10-16T07:07:09;2.65;;;1.00;;
54993;SDS011;40891;47.242;8.648;2022-10-16T07:09:35;2.10;;;1.13;;
54993;SDS011;40891;47.242;8.648;2022-10-16T07:12:00;3.10;;;1.00;;
54993;SDS011;40891;47.242;8.648;2022-10-16T07:14:26;2.88;;;0.88;;
54993;SDS011;40891;47.242;8.648;2022-10-16T07:16:51;3.63;;;1.15;;
54993;SDS011;40891;47.242;8.648;2022-10-16T07:19:16;3.88;;;0.82;;
54993;SDS011;40891;47.242;8.648;2022-10-16T07:21:43;1.85;;;0.95;;
54993;SDS011;40891;47.242;8.648;2022-10-16T07:24:18;3.08;;;0.93;;
54993;SDS011;40891;47.242;8.648;2022-10-16T07:26:44;3.28;;;1.10;;
54993;SDS011;40891;47.242;8.648;2022-10-16T07:29:14;2.72;;;0.90;;
54993;SDS011;40891;47.242;8.648;2022-10-16T07:31:42;4.82;;;1.00;;
54993;SDS011;40891;47.242;8.648;2022-10-16T07:34:08;3.65;;;1.08;;
54993;SDS011;40891;47.242;8.648;2022-10-16T07:36:34;6.65;;;0.90;;
54993;SDS011;40891;47.242;8.648;2022-10-16T07:38:59;3.53;;;1.20;;
54993;SDS011;40891;47.242;8.648;2022-10-16T07:41:25;3.53;;;0.95;;
54993;SDS011;40891;47.242;8.648;2022-10-16T07:43:51;3.28;;;1.45;;
54993;SDS011;40891;47.242;8.648;2022-10-16T07:46:18;3.35;;;1.25;;
54993;SDS011;40891;47.242;8.648;2022-10-16T07:48:44;4.47;;;1.63;;
54993;SDS011;40891;47.242;8.648;2022-10-16T07:51:12;8.55;;;1.92;;
54993;SDS011;40891;47.242;8.648;2022-10-16T07:53:38;2.58;;;1.30;;
54993;SDS011;40891;47.242;8.648;2022-10-16T07:56:04;2.05;;;1.10;;
54993;SDS011;40891;47.242;8.648;2022-10-16T07:58:31;2.85;;;1.30;;
54993;SDS011;40891;47.242;8.648;2022-10-16T08:00:57;9.23;;;1.23;;
54993;SDS011;40891;47.242;8.648;2022-10-16T08:03:23;5.05;;;1.48;;
54993;SDS011;40891;47.242;8.648;2022-10-16T08:05:49;4.72;;;1.08;;
54993;SDS011;40891;47.242;8.648;2022-10-16T08:08:15;5.05;;;1.20;;
54993;SDS011;40891;47.242;8.648;2022-10-16T08:10:41;4.43;;;1.10;;
54993;SDS011;40891;47.242;8.648;2022-10-16T08:13:06;3.67;;;1.15;;
54993;SDS011;40891;47.242;8.648;2022-10-16T08:15:32;2.88;;;0.90;;
54993;SDS011;40891;47.242;8.648;2022-10-16T08:18:01;2.28;;;0.82;;
54993;SDS011;40891;47.242;8.648;2022-10-16T08:20:29;4.40;;;1.10;;
54993;SDS011;40891;47.242;8.648;2022-10-16T08:22:55;4.40;;;1.60;;
54993;SDS011;40891;47.242;8.648;2022-10-16T08:25:21;3.05;;;1.02;;
54993;SDS011;40891;47.242;8.648;2022-10-16T08:27:48;6.88;;;1.17;;
54993;SDS011;40891;47.242;8.648;2022-10-16T08:30:14;6.32;;;1.10;;
54993;SDS011;40891;47.242;8.648;2022-10-16T08:32:40;2.58;;;0.93;;
54993;SDS011;40891;47.242;8.648;2022-10-16T08:35:07;1.70;;;1.00;;
54993;SDS011;40891;47.242;8.648;2022-10-16T08:37:34;6.80;;;1.13;;
54993;SDS011;40891;47.242;8.648;2022-10-16T08:39:59;1.70;;;0.90;;
54993;SDS011;40891;47.242;8.648;2022-10-16T08:42:31;1.60;;;0.90;;
54993;SDS011;40891;47.242;8.648;2022-10-16T08:50:23;4.05;;;1.10;;
54993;SDS011;40891;47.242;8.648;2022-10-16T08:52:52;3.78;;;1.30;;
54993;SDS011;40891;47.242;8.648;2022-10-16T08:55:31;3.22;;;1.23;;
54993;SDS011;40891;47.242;8.648;2022-10-16T08:58:02;6.65;;;1.13;;
54993;SDS011;40891;47.242;8.648;2022-10-16T09:00:38;3.63;;;1.10;;
54993;SDS011;40891;47.242;8.648;2022-10-16T09:03:07;2.95;;;1.20;;
54993;SDS011;40891;47.242;8.648;2022-10-16T09:08:28;8.90;;;1.50;;
54993;SDS011;40891;47.242;8.648;2022-10-16T09:11:18;7.43;;;1.10;;
54993;SDS011;40891;47.242;8.648;2022-10-16T09:13:53;1.67;;;0.65;;
54993;SDS011;40891;47.242;8.648;2022-10-16T09:16:30;2.50;;;1.13;;
54993;SDS011;40891;47.242;8.648;2022-10-16T09:19:02;1.10;;;1.00;;
54993;SDS011;40891;47.242;8.648;2022-10-16T09:21:31;2.47;;;1.20;;
54993;SDS011;40891;47.242;8.648;2022-10-16T09:24:07;3.97;;;1.10;;
54993;SDS011;40891;47.242;8.648;2022-10-16T09:26:37;4.07;;;0.90;;
54993;SDS011;40891;47.242;8.648;2022-10-16T09:29:02;5.60;;;0.93;;
54993;SDS011;40891;47.242;8.648;2022-10-16T09:31:28;0.70;;;0.50;;
54993;SDS011;40891;47.242;8.648;2022-10-16T09:33:55;7.80;;;0.60;;
54993;SDS011;40891;47.242;8.648;2022-10-16T09:36:23;1.63;;;0.73;;
54993;SDS011;40891;47.242;8.648;2022-10-16T09:38:50;2.33;;;0.82;;
54993;SDS011;40891;47.242;8.648;2022-10-16T09:41:27;1.38;;;0.90;;
54993;SDS011;40891;47.242;8.648;2022-10-16T09:43:54;3.10;;;0.93;;
54993;SDS011;40891;47.242;8.648;2022-10-16T09:46:35;2.75;;;1.08;;
54993;SDS011;40891;47.242;8.648;2022-10-16T09:49:03;3.40;;;0.98;;
54993;SDS011;40891;47.242;8.648;2022-10-16T09:51:43;7.47;;;1.30;;
54993;SDS011;40891;47.242;8.648;2022-10-16T09:56:34;7.53;;;1.00;;
54993;SDS011;40891;47.242;8.648;2022-10-16T09:59:11;7.22;;;0.93;;
54993;SDS011;40891;47.242;8.648;2022-10-16T10:01:44;0.85;;;0.60;;
54993;SDS011;40891;47.242;8.648;2022-10-16T10:04:12;3.33;;;0.80;;
54993;SDS011;40891;47.242;8.648;2022-10-16T10:06:56;4.00;;;0.93;;
54993;SDS011;40891;47.242;8.648;2022-10-16T10:12:01;2.88;;;1.00;;
54993;SDS011;40891;47.242;8.648;2022-10-16T10:17:07;3.05;;;0.70;;
54993;SDS011;40891;47.242;8.648;2022-10-16T10:19:47;1.95;;;0.70;;
54993;SDS011;40891;47.242;8.648;2022-10-16T10:27:21;2.20;;;0.70;;
54993;SDS011;40891;47.242;8.648;2022-10-16T10:33:02;2.22;;;0.80;;
54993;SDS011;40891;47.242;8.648;2022-10-16T10:35:43;2.90;;;0.77;;
54993;SDS011;40891;47.242;8.648;2022-10-16T10:38:19;2.80;;;0.73;;
54993;SDS011;40891;47.242;8.648;2022-10-16T10:40:50;3.20;;;0.80;;
54993;SDS011;40891;47.242;8.648;2022-10-16T10:46:04;0.65;;;0.60;;
54993;SDS011;40891;47.242;8.648;2022-10-16T10:51:08;2.25;;;0.68;;
54993;SDS011;40891;47.242;8.648;2022-10-16T10:53:50;1.85;;;0.70;;
54993;SDS011;40891;47.242;8.648;2022-10-16T10:56:46;6.97;;;0.90;;
54993;SDS011;40891;47.242;8.648;2022-10-16T10:59:30;2.05;;;0.80;;
54993;SDS011;40891;47.242;8.648;2022-10-16T11:02:03;2.30;;;0.73;;
54993;SDS011;40891;47.242;8.648;2022-10-16T11:05:11;4.60;;;1.00;;
54993;SDS011;40891;47.242;8.648;2022-10-16T11:11:08;2.03;;;0.80;;
54993;SDS011;40891;47.242;8.648;2022-10-16T11:13:42;4.50;;;1.00;;
54993;SDS011;40891;47.242;8.648;2022-10-16T11:16:23;2.53;;;1.00;;
54993;SDS011;40891;47.242;8.648;2022-10-16T11:19:03;4.47;;;0.80;;
54993;SDS011;40891;47.242;8.648;2022-10-16T11:21:41;0.82;;;0.60;;
54993;SDS011;40891;47.242;8.648;2022-10-16T11:24:21;1.70;;;0.63;;
54993;SDS011;40891;47.242;8.648;2022-10-16T11:26:52;3.67;;;1.00;;
54993;SDS011;40891;47.242;8.648;2022-10-16T11:29:22;3.55;;;0.98;;
54993;SDS011;40891;47.242;8.648;2022-10-16T11:31:52;2.40;;;0.75;;
54993;SDS011;40891;47.242;8.648;2022-10-16T11:36:51;2.05;;;0.70;;
54993;SDS011;40891;47.242;8.648;2022-10-16T11:39:31;2.50;;;0.70;;
54993;SDS011;40891;47.242;8.648;2022-10-16T11:47:45;3.42;;;0.70;;
54993;SDS011;40891;47.242;8.648;2022-10-16T11:53:09;1.88;;;0.70;;
54993;SDS011;40891;47.242;8.648;2022-10-16T11:55:42;2.75;;;0.80;;
54993;SDS011;40891;47.242;8.648;2022-10-16T12:00:54;2.92;;;0.82;;
54993;SDS011;40891;47.242;8.648;2022-10-16T12:03:35;1.48;;;0.50;;
54993;SDS011;40891;47.242;8.648;2022-10-16T12:09:05;1.60;;;0.70;;
54993;SDS011;40891;47.242;8.648;2022-10-16T12:11:40;1.17;;;0.60;;
54993;SDS011;40891;47.242;8.648;2022-10-16T12:14:07;1.63;;;0.70;;
54993;SDS011;40891;47.242;8.648;2022-10-16T12:16:56;1.83;;;0.82;;
54993;SDS011;40891;47.242;8.648;2022-10-16T12:19:25;3.33;;;0.70;;
54993;SDS011;40891;47.242;8.648;2022-10-16T12:21:53;1.35;;;0.55;;
54993;SDS011;40891;47.242;8.648;2022-10-16T12:24:22;2.17;;;0.70;;
54993;SDS011;40891;47.242;8.648;2022-10-16T12:26:55;3.22;;;0.90;;
54993;SDS011;40891;47.242;8.648;2022-10-16T12:32:21;1.38;;;0.85;;
54993;SDS011;40891;47.242;8.648;2022-10-16T12:34:56;1.20;;;0.57;;
54993;SDS011;40891;47.242;8.648;2022-10-16T12:39:50;2.55;;;0.63;;
54993;SDS011;40891;47.242;8.648;2022-10-16T12:42:31;4.57;;;0.70;;
54993;SDS011;40891;47.242;8.648;2022-10-16T12:44:58;1.98;;;0.70;;
54993;SDS011;40891;47.242;8.648;2022-10-16T12:50:01;2.63;;;0.70;;
54993;SDS011;40891;47.242;8.648;2022-10-16T12:52:34;6.65;;;0.63;;
54993;SDS011;40891;47.242;8.648;2022-10-16T12:55:02;3.70;;;0.70;;
54993;SDS011;40891;47.242;8.648;2022-10-16T13:02:57;2.05;;;0.60;;
54993;SDS011;40891;47.242;8.648;2022-10-16T13:11:05;3.33;;;0.50;;
54993;SDS011;40891;47.242;8.648;2022-10-16T13:13:56;0.68;;;0.45;;
54993;SDS011;40891;47.242;8.648;2022-10-16T13:16:48;0.88;;;0.60;;
54993;SDS011;40891;47.242;8.648;2022-10-16T13:25:35;0.73;;;0.52;;
54993;SDS011;40891;47.242;8.648;2022-10-16T13:28:01;1.90;;;0.57;;
54993;SDS011;40891;47.242;8.648;2022-10-16T13:30:40;0.93;;;0.47;;
54993;SDS011;40891;47.242;8.648;2022-10-16T13:33:12;0.70;;;0.40;;
54993;SDS011;40891;47.242;8.648;2022-10-16T13:35:54;1.35;;;0.60;;
54993;SDS011;40891;47.242;8.648;2022-10-16T13:38:28;4.68;;;0.90;;
54993;SDS011;40891;47.242;8.648;2022-10-16T13:43:23;0.80;;;0.63;;
54993;SDS011;40891;47.242;8.648;2022-10-16T13:45:53;0.52;;;0.50;;
54993;SDS011;40891;47.242;8.648;2022-10-16T13:48:19;0.82;;;0.50;;
54993;SDS011;40891;47.242;8.648;2022-10-16T13:50:45;5.55;;;0.50;;
54993;SDS011;40891;47.242;8.648;2022-10-16T13:53:14;2.08;;;0.70;;
54993;SDS011;40891;47.242;8.648;2022-10-16T13:55:39;3.15;;;0.60;;
54993;SDS011;40891;47.242;8.648;2022-10-16T13:58:10;2.13;;;0.50;;
54993;SDS011;40891;47.242;8.648;2022-10-16T14:00:38;0.80;;;0.52;;
54993;SDS011;40891;47.242;8.648;2022-10-16T14:03:04;0.95;;;0.50;;
54993;SDS011;40891;47.242;8.648;2022-10-16T14:05:32;1.98;;;0.70;;
54993;SDS011;40891;47.242;8.648;2022-10-16T14:07:58;3.65;;;0.77;;
54993;SDS011;40891;47.242;8.648;2022-10-16T14:10:25;1.40;;;0.70;;
54993;SDS011;40891;47.242;8.648;2022-10-16T14:13:04;1.67;;;0.68;;
54993;SDS011;40891;47.242;8.648;2022-10-16T14:15:32;2.75;;;0.70;;
54993;SDS011;40891;47.242;8.648;2022-10-16T14:18:00;1.77;;;0.82;;
54993;SDS011;40891;47.242;8.648;2022-10-16T14:20:27;0.88;;;0.70;;
54993;SDS011;40891;47.242;8.648;2022-10-16T14:23:02;2.85;;;0.52;;
54993;SDS011;40891;47.242;8.648;2022-10-16T14:25:46;1.52;;;0.70;;
54993;SDS011;40891;47.242;8.648;2022-10-16T14:28:16;4.72;;;0.70;;
54993;SDS011;40891;47.242;8.648;2022-10-16T14:30:54;3.53;;;0.70;;
54993;SDS011;40891;47.242;8.648;2022-10-16T14:33:23;2.90;;;0.70;;
54993;SDS011;40891;47.242;8.648;2022-10-16T14:38:35;2.40;;;0.77;;
54993;SDS011;40891;47.242;8.648;2022-10-16T14:41:03;4.18;;;0.90;;
54993;SDS011;40891;47.242;8.648;2022-10-16T14:43:31;2.72;;;0.68;;
54993;SDS011;40891;47.242;8.648;2022-10-16T14:45:59;2.05;;;0.88;;
54993;SDS011;40891;47.242;8.648;2022-10-16T14:48:26;4.82;;;1.00;;
54993;SDS011;40891;47.242;8.648;2022-10-16T14:50:51;6.43;;;0.93;;
54993;SDS011;40891;47.242;8.648;2022-10-16T14:53:17;1.70;;;0.60;;
54993;SDS011;40891;47.242;8.648;2022-10-16T14:55:43;3.15;;;0.93;;
54993;SDS011;40891;47.242;8.648;2022-10-16T14:58:10;4.00;;;1.08;;
54993;SDS011;40891;47.242;8.648;2022-10-16T15:00:42;3.33;;;0.85;;
54993;SDS011;40891;47.242;8.648;2022-10-16T15:03:08;2.00;;;0.98;;
54993;SDS011;40891;47.242;8.648;2022-10-16T15:05:33;1.27;;;0.93;;
54993;SDS011;40891;47.242;8.648;2022-10-16T15:07:59;6.38;;;1.40;;
54993;SDS011;40891;47.242;8.648;2022-10-16T15:10:25;2.53;;;1.10;;
54993;SDS011;40891;47.242;8.648;2022-10-16T15:12:52;4.05;;;1.20;;
54993;SDS011;40891;47.242;8.648;2022-10-16T15:15:26;3.83;;;1.38;;
54993;SDS011;40891;47.242;8.648;2022-10-16T15:18:08;2.00;;;1.35;;
54993;SDS011;40891;47.242;8.648;2022-10-16T15:20:34;4.57;;;1.20;;
54993;SDS011;40891;47.242;8.648;2022-10-16T15:23:02;4.85;;;1.35;;
54993;SDS011;40891;47.242;8.648;2022-10-16T15:28:17;4.40;;;1.38;;
54993;SDS011;40891;47.242;8.648;2022-10-16T15:30:44;4.05;;;1.00;;
54993;SDS011;40891;47.242;8.648;2022-10-16T15:33:12;2.92;;;0.98;;
54993;SDS011;40891;47.242;8.648;2022-10-16T15:35:40;1.30;;;1.08;;
54993;SDS011;40891;47.242;8.648;2022-10-16T15:38:05;8.48;;;1.20;;
54993;SDS011;40891;47.242;8.648;2022-10-16T15:40:31;2.78;;;1.00;;
54993;SDS011;40891;47.242;8.648;2022-10-16T15:42:56;4.45;;;1.17;;
54993;SDS011;40891;47.242;8.648;2022-10-16T15:45:21;5.18;;;1.40;;
54993;SDS011;40891;47.242;8.648;2022-10-16T15:47:47;5.78;;;1.65;;
54993;SDS011;40891;47.242;8.648;2022-10-16T15:50:13;5.05;;;1.52;;
54993;SDS011;40891;47.242;8.648;2022-10-16T15:52:39;4.88;;;1.30;;
54993;SDS011;40891;47.242;8.648;2022-10-16T15:55:09;5.53;;;1.95;;
54993;SDS011;40891;47.242;8.648;2022-10-16T15:57:36;1.75;;;1.00;;
54993;SDS011;40891;47.242;8.648;2022-10-16T16:00:04;3.58;;;1.17;;
54993;SDS011;40891;47.242;8.648;2022-10-16T16:02:31;2.88;;;1.27;;
54993;SDS011;40891;47.242;8.648;2022-10-16T16:04:56;6.93;;;2.78;;
54993;SDS011;40891;47.242;8.648;2022-10-16T16:07:22;28.67;;;11.52;;
54993;SDS011;40891;47.242;8.648;2022-10-16T16:09:47;14.60;;;6.43;;
54993;SDS011;40891;47.242;8.648;2022-10-16T16:12:12;10.48;;;3.70;;
54993;SDS011;40891;47.242;8.648;2022-10-16T16:14:38;6.40;;;1.40;;
54993;SDS011;40891;47.242;8.648;2022-10-16T16:17:03;4.93;;;1.65;;
54993;SDS011;40891;47.242;8.648;2022-10-16T16:19:28;4.38;;;1.35;;
54993;SDS011;40891;47.242;8.648;2022-10-16T16:21:53;2.13;;;1.20;;
54993;SDS011;40891;47.242;8.648;2022-10-16T16:24:19;2.97;;;1.23;;
54993;SDS011;40891;47.242;8.648;2022-10-16T16:26:45;4.10;;;1.30;;
54993;SDS011;40891;47.242;8.648;2022-10-16T16:29:11;6.00;;;1.30;;